createdAt,value
2019-02-07T00:00:50.156Z,78.42
2019-02-07T00:01:50.170Z,78.42
2019-02-07T00:02:49.934Z,78.42
2019-02-07T00:03:49.947Z,78.51
2019-02-07T00:04:50.219Z,78.42
2019-02-07T00:05:49.985Z,78.42
2019-02-07T00:06:49.994Z,77.94
2019-02-07T00:07:50.277Z,78.03
2019-02-07T00:08:50.026Z,78.42
2019-02-07T00:09:50.054Z,77.84
2019-02-07T00:10:50.058Z,78.42
2019-02-07T00:11:50.335Z,77.94
2019-02-07T00:12:50.450Z,78.03
2019-02-07T00:13:50.111Z,77.94
2019-02-07T00:14:50.396Z,78.13
2019-02-07T00:15:50.145Z,78.32
2019-02-07T00:16:50.160Z,78.51
2019-02-07T00:17:50.437Z,78.32
2019-02-07T00:18:50.195Z,78.32
2019-02-07T00:19:50.212Z,78.32
2019-02-07T00:20:50.517Z,78.32
2019-02-07T00:21:50.500Z,78.32
2019-02-07T00:22:50.561Z,78.32
2019-02-07T00:23:50.276Z,78.42
2019-02-07T00:24:50.549Z,78.42
2019-02-07T00:25:50.567Z,78.42
2019-02-07T00:26:50.325Z,78.42
2019-02-07T00:27:50.347Z,78.51
2019-02-07T00:28:50.687Z,78.42
2019-02-07T00:29:50.631Z,78.23
2019-02-07T00:30:50.658Z,78.23
2019-02-07T00:31:50.407Z,78.28
2019-02-07T00:32:50.426Z,78.32
2019-02-07T00:33:50.704Z,78.51
2019-02-07T00:34:50.465Z,78.32
2019-02-07T00:35:50.472Z,78.42
2019-02-07T00:36:50.774Z,78.32
2019-02-07T00:37:50.773Z,78.23
2019-02-07T00:38:50.781Z,78.23
2019-02-07T00:39:50.543Z,78.23
2019-02-07T00:40:50.560Z,78.32
2019-02-07T00:41:50.572Z,78.32
2019-02-07T00:42:50.700Z,78.32
2019-02-07T00:43:50.640Z,78.38
2019-02-07T00:44:54.717Z,78.32
2019-02-07T00:45:50.896Z,78.32
2019-02-07T00:46:50.921Z,78.42
2019-02-07T00:47:50.935Z,78.32
2019-02-07T00:48:50.695Z,78.32
2019-02-07T00:49:50.711Z,78.32
2019-02-07T00:50:50.986Z,78.32
2019-02-07T00:51:51.251Z,78.32
2019-02-07T00:52:51.021Z,78.42
2019-02-07T00:53:50.775Z,78.23
2019-02-07T00:54:50.790Z,78.23
2019-02-07T00:55:51.070Z,78.32
2019-02-07T00:56:51.151Z,78.51
2019-02-07T00:57:50.993Z,78.23
2019-02-07T00:58:50.862Z,78.42
2019-02-07T00:59:51.065Z,78.32
2019-02-07T01:00:51.149Z,78.32
2019-02-07T01:01:51.156Z,78.32
2019-02-07T01:02:50.919Z,78.32
2019-02-07T01:03:50.940Z,78.23
2019-02-07T01:04:50.979Z,78.23
2019-02-07T01:05:51.230Z,78.42
2019-02-07T01:06:50.990Z,78.42
2019-02-07T01:07:51.321Z,78.32
2019-02-07T01:08:51.024Z,78.42
2019-02-07T01:09:51.297Z,78.32
2019-02-07T01:10:51.319Z,78.51
2019-02-07T01:11:51.328Z,78.03
2019-02-07T01:12:51.085Z,78.51
2019-02-07T01:13:51.107Z,78.42
2019-02-07T01:15:01.410Z,78.32
2019-02-07T01:15:51.720Z,78.32
2019-02-07T01:16:51.160Z,78.32
2019-02-07T01:17:51.173Z,78.42
2019-02-07T01:18:51.449Z,78.32
2019-02-07T01:19:51.462Z,78.13
2019-02-07T01:20:51.218Z,78.13
2019-02-07T01:21:51.233Z,78.23
2019-02-07T01:22:51.334Z,78.03
2019-02-07T01:23:51.271Z,78.42
2019-02-07T01:24:51.541Z,78.13
2019-02-07T01:25:51.303Z,78.42
2019-02-07T01:26:51.317Z,78.32
2019-02-07T01:27:51.337Z,78.32
2019-02-07T01:28:51.605Z,78.03
2019-02-07T01:29:51.365Z,78.42
2019-02-07T01:30:51.968Z,78.51
2019-02-07T01:31:51.401Z,78.42
2019-02-07T01:32:51.420Z,78.42
2019-02-07T01:33:51.434Z,78.42
2019-02-07T01:34:51.711Z,78.51
2019-02-07T01:35:51.472Z,78.42
2019-02-07T01:36:51.480Z,77.75
2019-02-07T01:37:51.502Z,78.42
2019-02-07T01:38:51.816Z,78.42
2019-02-07T01:39:51.798Z,78.42
2019-02-07T01:40:51.547Z,77.94
2019-02-07T01:41:51.571Z,77.94
2019-02-07T01:42:51.696Z,78.23
2019-02-07T01:43:51.857Z,77.94
2019-02-07T01:44:51.873Z,77.94
2019-02-07T01:45:51.887Z,77.94
2019-02-07T01:46:51.648Z,77.71
2019-02-07T01:47:51.661Z,77.84
2019-02-07T01:48:51.687Z,77.94
2019-02-07T01:49:51.699Z,78.03
2019-02-07T01:50:51.969Z,77.75
2019-02-07T01:51:51.991Z,77.84
2019-02-07T01:52:51.742Z,78.03
2019-02-07T01:53:52.028Z,77.94
2019-02-07T01:54:51.782Z,77.94
2019-02-07T01:55:52.048Z,77.94
2019-02-07T01:56:52.070Z,77.84
2019-02-07T01:57:52.089Z,77.84
2019-02-07T01:58:52.155Z,77.84
2019-02-07T01:59:51.869Z,78.03
2019-02-07T02:00:51.882Z,78.23
2019-02-07T02:01:52.739Z,77.94
2019-02-07T02:02:51.916Z,77.84
2019-02-07T02:03:52.284Z,78.03
2019-02-07T02:04:51.950Z,77.94
2019-02-07T02:05:52.222Z,77.94
2019-02-07T02:06:51.977Z,78.03
2019-02-07T02:07:51.991Z,77.94
2019-02-07T02:08:52.269Z,77.84
2019-02-07T02:09:52.518Z,77.94
2019-02-07T02:10:52.299Z,78.23
2019-02-07T02:11:52.053Z,77.84
2019-02-07T02:12:52.081Z,77.84
2019-02-07T02:13:52.093Z,77.84
2019-02-07T02:14:52.107Z,77.84
2019-02-07T02:15:52.122Z,78.03
2019-02-07T02:16:52.571Z,77.84
2019-02-07T02:17:52.427Z,77.94
2019-02-07T02:18:52.181Z,77.94
2019-02-07T02:19:52.191Z,77.66
2019-02-07T02:20:52.208Z,77.66
2019-02-07T02:21:52.227Z,77.94
2019-02-07T02:22:52.243Z,77.84
2019-02-07T02:23:52.513Z,77.84
2019-02-07T02:24:52.577Z,77.66
2019-02-07T02:25:52.547Z,77.94
2019-02-07T02:26:52.310Z,77.94
2019-02-07T02:27:52.328Z,77.94
2019-02-07T02:28:52.339Z,77.66
2019-02-07T02:29:52.350Z,77.81
2019-02-07T02:30:52.374Z,77.62
2019-02-07T02:31:52.659Z,77.84
2019-02-07T02:32:52.993Z,77.56
2019-02-07T02:33:52.686Z,78
2019-02-07T02:34:52.702Z,78.03
2019-02-07T02:35:52.715Z,77.75
2019-02-07T02:36:52.725Z,77.66
2019-02-07T02:37:52.490Z,77.62
2019-02-07T02:38:52.508Z,77.9
2019-02-07T02:39:52.705Z,77.62
2019-02-07T02:40:52.540Z,78
2019-02-07T02:41:52.817Z,77.52
2019-02-07T02:42:52.583Z,77.75
2019-02-07T02:43:52.840Z,77.81
2019-02-07T02:44:52.606Z,77.52
2019-02-07T02:45:52.878Z,77.43
2019-02-07T02:46:52.960Z,77.52
2019-02-07T02:47:53.248Z,77.52
2019-02-07T02:48:52.932Z,77.37
2019-02-07T02:49:52.946Z,77.43
2019-02-07T02:50:52.955Z,77.62
2019-02-07T02:51:52.722Z,77.94
2019-02-07T02:52:53.039Z,77.43
2019-02-07T02:53:52.747Z,77.33
2019-02-07T02:54:53.033Z,77.62
2019-02-07T02:55:53.092Z,77.71
2019-02-07T02:56:52.795Z,77.62
2019-02-07T02:57:53.074Z,77.81
2019-02-07T02:58:52.828Z,77.9
2019-02-07T02:59:53.113Z,77.56
2019-02-07T03:00:53.128Z,77.81
2019-02-07T03:01:53.168Z,78
2019-02-07T03:02:52.898Z,77.71
2019-02-07T03:03:53.229Z,77.43
2019-02-07T03:04:52.948Z,77.52
2019-02-07T03:05:53.202Z,77.9
2019-02-07T03:06:53.224Z,78
2019-02-07T03:07:52.979Z,78.09
2019-02-07T03:08:53.265Z,78
2019-02-07T03:09:53.019Z,78.09
2019-02-07T03:10:53.026Z,78
2019-02-07T03:11:53.313Z,78.13
2019-02-07T03:12:53.321Z,77.9
2019-02-07T03:13:53.339Z,78.13
2019-02-07T03:14:53.103Z,78.09
2019-02-07T03:15:53.116Z,77.75
2019-02-07T03:16:53.126Z,77.62
2019-02-07T03:17:53.436Z,77.43
2019-02-07T03:18:53.603Z,77.24
2019-02-07T03:19:53.177Z,77.24
2019-02-07T03:20:53.193Z,77.28
2019-02-07T03:21:53.207Z,77.33
2019-02-07T03:22:53.230Z,77.66
2019-02-07T03:23:53.500Z,77.37
2019-02-07T03:24:53.261Z,77.33
2019-02-07T03:25:53.275Z,77.52
2019-02-07T03:26:53.609Z,77.52
2019-02-07T03:27:53.571Z,77.52
2019-02-07T03:28:53.430Z,77.62
2019-02-07T03:29:53.341Z,77.66
2019-02-07T03:30:53.633Z,77.56
2019-02-07T03:31:53.646Z,77.66
2019-02-07T03:32:53.395Z,77.52
2019-02-07T03:33:53.413Z,77.62
2019-02-07T03:34:53.819Z,77.47
2019-02-07T03:35:53.436Z,77.66
2019-02-07T03:36:53.717Z,77.43
2019-02-07T03:37:53.478Z,77.56
2019-02-07T03:38:53.488Z,77.66
2019-02-07T03:39:53.834Z,77.33
2019-02-07T03:40:53.521Z,77.18
2019-02-07T03:41:53.539Z,77.18
2019-02-07T03:42:53.571Z,77.37
2019-02-07T03:43:53.837Z,77.28
2019-02-07T03:44:53.854Z,77.28
2019-02-07T03:46:05.359Z,77.56
2019-02-07T03:46:53.625Z,77.56
2019-02-07T03:47:53.900Z,77.28
2019-02-07T03:48:53.914Z,77.09
2019-02-07T03:49:54.060Z,76.99
2019-02-07T03:50:53.948Z,77.18
2019-02-07T03:51:53.961Z,77.37
2019-02-07T03:52:53.982Z,77.37
2019-02-07T03:53:53.740Z,77.37
2019-02-07T03:54:54.017Z,77.28
2019-02-07T03:55:53.777Z,77.28
2019-02-07T03:56:54.052Z,76.71
2019-02-07T03:57:54.423Z,76.61
2019-02-07T03:58:53.834Z,76.61
2019-02-07T03:59:54.108Z,76.57
2019-02-07T04:00:53.850Z,76.71
2019-02-07T04:01:53.868Z,76.71
2019-02-07T04:02:53.894Z,76.8
2019-02-07T04:03:53.907Z,76.8
2019-02-07T04:04:54.184Z,76.8
2019-02-07T04:05:54.334Z,76.99
2019-02-07T04:06:53.958Z,76.99
2019-02-07T04:07:53.967Z,76.99
2019-02-07T04:08:53.987Z,76.9
2019-02-07T04:09:54.264Z,76.61
2019-02-07T04:10:54.041Z,76.9
2019-02-07T04:11:54.043Z,76.61
2019-02-07T04:12:54.055Z,76.9
2019-02-07T04:13:54.656Z,76.61
2019-02-07T04:14:54.360Z,76.61
2019-02-07T04:15:54.103Z,76.9
2019-02-07T04:16:54.126Z,76.71
2019-02-07T04:17:54.138Z,76.71
2019-02-07T04:18:54.415Z,76.61
2019-02-07T04:19:54.581Z,76.04
2019-02-07T04:20:54.190Z,76.42
2019-02-07T04:21:54.498Z,76.42
2019-02-07T04:22:54.219Z,76.23
2019-02-07T04:23:54.238Z,76.52
2019-02-07T04:24:54.268Z,76.42
2019-02-07T04:25:54.267Z,76.42
2019-02-07T04:26:54.283Z,76.52
2019-02-07T04:27:54.558Z,76.32
2019-02-07T04:28:54.577Z,76.23
2019-02-07T04:29:54.600Z,76.23
2019-02-07T04:30:54.608Z,76.52
2019-02-07T04:31:54.367Z,76.32
2019-02-07T04:32:54.637Z,76.04
2019-02-07T04:33:54.663Z,76.32
2019-02-07T04:34:54.417Z,76.04
2019-02-07T04:35:54.440Z,76.42
2019-02-07T04:36:54.635Z,76.04
2019-02-07T04:37:54.466Z,76.14
2019-02-07T04:38:54.756Z,76.04
2019-02-07T04:39:54.762Z,76.04
2019-02-07T04:40:54.777Z,76.23
2019-02-07T04:41:54.534Z,76.04
2019-02-07T04:42:54.556Z,76.14
2019-02-07T04:43:54.562Z,75.85
2019-02-07T04:44:54.914Z,76.04
2019-02-07T04:45:54.604Z,76.04
2019-02-07T04:46:54.880Z,76.04
2019-02-07T04:47:54.629Z,76.04
2019-02-07T04:48:54.904Z,76.04
2019-02-07T04:49:54.678Z,76.14
2019-02-07T04:50:54.936Z,76.23
2019-02-07T04:51:54.693Z,76.04
2019-02-07T04:52:55.282Z,76.23
2019-02-07T04:53:54.731Z,76.23
2019-02-07T04:54:54.746Z,76.04
2019-02-07T04:55:54.764Z,75.85
2019-02-07T04:56:54.781Z,76.32
2019-02-07T04:57:55.059Z,75.85
2019-02-07T04:58:55.068Z,76.23
2019-02-07T04:59:54.825Z,76.42
2019-02-07T05:00:55.162Z,76.32
2019-02-07T05:01:54.862Z,76.04
2019-02-07T05:02:54.882Z,76.32
2019-02-07T05:03:55.152Z,76.42
2019-02-07T05:04:55.165Z,75.76
2019-02-07T05:05:54.924Z,76.04
2019-02-07T05:06:54.943Z,75.85
2019-02-07T05:07:54.967Z,75.85
2019-02-07T05:08:55.242Z,75.95
2019-02-07T05:09:55.252Z,76.23
2019-02-07T05:10:55.270Z,75.95
2019-02-07T05:11:55.028Z,75.95
2019-02-07T05:12:55.045Z,76.32
2019-02-07T05:13:55.070Z,76.23
2019-02-07T05:14:55.335Z,76.32
2019-02-07T05:15:55.364Z,75.57
2019-02-07T05:16:55.176Z,76.23
2019-02-07T05:17:55.398Z,76.04
2019-02-07T05:18:55.406Z,76.23
2019-02-07T05:19:55.164Z,76.23
2019-02-07T05:20:55.177Z,76.04
2019-02-07T05:21:55.456Z,76.14
2019-02-07T05:22:55.466Z,76.23
2019-02-07T05:23:55.625Z,76.23
2019-02-07T05:24:55.500Z,76.14
2019-02-07T05:25:55.516Z,76.04
2019-02-07T05:26:55.533Z,76.04
2019-02-07T05:27:55.293Z,76.23
2019-02-07T05:28:55.564Z,76.14
2019-02-07T05:29:55.332Z,76.23
2019-02-07T05:30:55.387Z,76.14
2019-02-07T05:31:55.363Z,76.14
2019-02-07T05:32:55.634Z,76.14
2019-02-07T05:33:55.391Z,76.23
2019-02-07T05:34:55.410Z,76.04
2019-02-07T05:35:55.722Z,76.23
2019-02-07T05:36:55.700Z,76.04
2019-02-07T05:37:55.718Z,76.14
2019-02-07T05:38:55.747Z,75.95
2019-02-07T05:39:55.769Z,75.85
2019-02-07T05:40:55.506Z,76.32
2019-02-07T05:41:55.784Z,76.42
2019-02-07T05:42:55.809Z,76.42
2019-02-07T05:43:55.821Z,75.85
2019-02-07T05:44:55.831Z,75.76
2019-02-07T05:45:55.588Z,75.95
2019-02-07T05:46:55.979Z,75.76
2019-02-07T05:47:55.626Z,75.76
2019-02-07T05:48:55.644Z,75.76
2019-02-07T05:49:55.909Z,75.85
2019-02-07T05:50:55.801Z,75.76
2019-02-07T05:51:55.687Z,75.76
2019-02-07T05:52:55.706Z,75.76
2019-02-07T05:53:55.982Z,75.95
2019-02-07T05:54:55.762Z,76.14
2019-02-07T05:55:55.759Z,76.14
2019-02-07T05:56:56.033Z,76.04
2019-02-07T05:57:55.786Z,75.76
2019-02-07T05:58:55.811Z,75.85
2019-02-07T05:59:55.821Z,75.85
2019-02-07T06:00:55.837Z,75.95
2019-02-07T06:01:56.338Z,76.04
2019-02-07T06:02:55.876Z,76.04
2019-02-07T06:03:55.892Z,76.04
2019-02-07T06:04:55.905Z,75.95
2019-02-07T06:05:56.187Z,75.95
2019-02-07T06:06:56.194Z,76.04
2019-02-07T06:07:55.957Z,76.04
2019-02-07T06:08:55.974Z,75.95
2019-02-07T06:09:56.603Z,75.95
2019-02-07T06:10:56.262Z,75.95
2019-02-07T06:11:56.282Z,76.04
2019-02-07T06:12:56.046Z,75.85
2019-02-07T06:13:56.049Z,75.95
2019-02-07T06:14:56.070Z,75.85
2019-02-07T06:15:56.974Z,75.67
2019-02-07T06:17:04.812Z,75.67
2019-02-07T06:17:56.449Z,75.57
2019-02-07T06:18:56.139Z,75.67
2019-02-07T06:19:56.410Z,75.76
2019-02-07T06:20:56.171Z,75.67
2019-02-07T06:21:56.443Z,75.85
2019-02-07T06:22:56.200Z,75.76
2019-02-07T06:23:56.219Z,75.67
2019-02-07T06:24:56.492Z,75.67
2019-02-07T06:25:56.247Z,75.67
2019-02-07T06:26:56.530Z,75.67
2019-02-07T06:27:56.295Z,75.67
2019-02-07T06:28:57.601Z,75.85
2019-02-07T06:29:56.571Z,75.95
2019-02-07T06:30:56.593Z,75.67
2019-02-07T06:31:56.346Z,75.67
2019-02-07T06:32:56.543Z,75.95
2019-02-07T06:33:56.378Z,75.85
2019-02-07T06:34:56.396Z,75.57
2019-02-07T06:35:56.677Z,75.57
2019-02-07T06:36:56.688Z,75.76
2019-02-07T06:37:56.701Z,75.95
2019-02-07T06:38:56.591Z,75.95
2019-02-07T06:39:56.480Z,76.04
2019-02-07T06:40:56.848Z,75.76
2019-02-07T06:41:56.773Z,76.04
2019-02-07T06:42:56.791Z,76.14
2019-02-07T06:43:56.545Z,76.42
2019-02-07T06:44:56.557Z,76.32
2019-02-07T06:45:56.580Z,75.85
2019-02-07T06:46:56.859Z,75.85
2019-02-07T06:47:56.618Z,76.32
2019-02-07T06:48:57.206Z,76.2
2019-02-07T06:49:56.644Z,75.85
2019-02-07T06:50:56.743Z,76.04
2019-02-07T06:51:56.942Z,76.04
2019-02-07T06:52:56.694Z,76.23
2019-02-07T06:53:56.966Z,76.23
2019-02-07T06:54:56.728Z,76.14
2019-02-07T06:55:56.743Z,76.01
2019-02-07T06:56:57.409Z,76.23
2019-02-07T06:57:57.034Z,76.32
2019-02-07T06:58:57.757Z,76.14
2019-02-07T06:59:57.069Z,76.23
2019-02-07T07:00:56.828Z,76.23
2019-02-07T07:01:57.100Z,76.14
2019-02-07T07:02:57.121Z,76.23
2019-02-07T07:03:59.885Z,76.23
2019-02-07T07:04:56.888Z,76.04
2019-02-07T07:05:57.171Z,76.04
2019-02-07T07:06:57.187Z,76.04
2019-02-07T07:07:56.951Z,76.14
2019-02-07T07:08:56.959Z,76.1
2019-02-07T07:09:57.241Z,76.14
2019-02-07T07:10:57.254Z,76.14
2019-02-07T07:11:57.012Z,76.23
2019-02-07T07:12:57.026Z,76.14
2019-02-07T07:13:57.046Z,76.14
2019-02-07T07:14:57.062Z,76.14
2019-02-07T07:15:57.073Z,76.04
2019-02-07T07:16:57.347Z,76.14
2019-02-07T07:17:57.367Z,76.04
2019-02-07T07:18:57.125Z,76.23
2019-02-07T07:19:57.403Z,76.23
2019-02-07T07:20:59.513Z,76.14
2019-02-07T07:21:57.187Z,76.23
2019-02-07T07:22:57.447Z,75.95
2019-02-07T07:23:57.475Z,76.23
2019-02-07T07:24:57.221Z,76.42
2019-02-07T07:25:57.244Z,76.32
2019-02-07T07:26:57.524Z,75.85
2019-02-07T07:27:57.276Z,75.76
2019-02-07T07:28:57.293Z,75.95
2019-02-07T07:29:57.565Z,76.23
2019-02-07T07:30:57.327Z,76.23
2019-02-07T07:31:57.348Z,75.67
2019-02-07T07:32:57.361Z,75.85
2019-02-07T07:33:57.632Z,75.67
2019-02-07T07:34:57.655Z,75.67
2019-02-07T07:35:57.529Z,75.67
2019-02-07T07:36:57.435Z,75.85
2019-02-07T07:37:57.438Z,75.85
2019-02-07T07:38:57.712Z,75.95
2019-02-07T07:39:57.731Z,75.95
2019-02-07T07:40:57.496Z,75.95
2019-02-07T07:41:57.507Z,75.85
2019-02-07T07:42:57.528Z,75.85
2019-02-07T07:43:58.046Z,75.76
2019-02-07T07:44:57.823Z,75.57
2019-02-07T07:45:57.833Z,75.38
2019-02-07T07:46:57.860Z,75.85
2019-02-07T07:47:57.606Z,75.47
2019-02-07T07:48:57.625Z,75.19
2019-02-07T07:49:57.897Z,75.38
2019-02-07T07:50:57.655Z,75.95
2019-02-07T07:51:57.997Z,75.28
2019-02-07T07:52:57.691Z,75.38
2019-02-07T07:53:57.707Z,75.85
2019-02-07T07:54:57.972Z,76.04
2019-02-07T07:55:57.741Z,75.19
2019-02-07T07:56:57.751Z,75.38
2019-02-07T07:57:58.029Z,75.38
2019-02-07T07:58:57.785Z,75.28
2019-02-07T07:59:58.415Z,75.28
2019-02-07T08:00:58.077Z,75.28
2019-02-07T08:01:58.092Z,75.38
2019-02-07T08:02:57.855Z,75.19
2019-02-07T08:03:58.125Z,75.38
2019-02-07T08:04:57.913Z,75.38
2019-02-07T08:05:58.164Z,75.28
2019-02-07T08:06:57.921Z,75.28
2019-02-07T08:07:57.943Z,75.28
2019-02-07T08:08:58.212Z,75.19
2019-02-07T08:09:57.974Z,75.28
2019-02-07T08:10:57.984Z,75.38
2019-02-07T08:11:58.002Z,75.47
2019-02-07T08:12:58.279Z,75.47
2019-02-07T08:13:58.289Z,75.57
2019-02-07T08:14:58.261Z,75.47
2019-02-07T08:15:58.069Z,75.28
2019-02-07T08:16:59.182Z,75.76
2019-02-07T08:17:58.360Z,75.47
2019-02-07T08:18:58.118Z,75.28
2019-02-07T08:19:58.134Z,75.28
2019-02-07T08:20:58.160Z,75.28
2019-02-07T08:21:58.419Z,75.38
2019-02-07T08:22:58.443Z,75.28
2019-02-07T08:23:58.202Z,75.47
2019-02-07T08:24:58.476Z,75.47
2019-02-07T08:25:58.489Z,75.47
2019-02-07T08:26:58.245Z,75.38
2019-02-07T08:27:58.270Z,75.57
2019-02-07T08:28:58.281Z,75.76
2019-02-07T08:29:58.563Z,75.32
2019-02-07T08:30:58.529Z,75.47
2019-02-07T08:31:58.330Z,75.38
2019-02-07T08:32:58.612Z,75.47
2019-02-07T08:33:58.620Z,75.47
2019-02-07T08:34:58.386Z,75.42
2019-02-07T08:35:58.402Z,75.28
2019-02-07T08:36:58.421Z,75.47
2019-02-07T08:38:00.589Z,75.57
2019-02-07T08:38:58.785Z,75.42
2019-02-07T08:39:58.468Z,75.51
2019-02-07T08:40:58.735Z,75.6
2019-02-07T08:41:58.500Z,75.51
2019-02-07T08:42:58.524Z,75.51
2019-02-07T08:43:58.546Z,75.42
2019-02-07T08:44:58.651Z,75.42
2019-02-07T08:45:58.831Z,75.42
2019-02-07T08:46:58.802Z,75.51
2019-02-07T08:48:03.406Z,75.51
2019-02-07T08:49:00.993Z,75.51
2019-02-07T08:49:58.955Z,75.51
2019-02-07T08:50:58.656Z,75.6
2019-02-07T08:51:58.924Z,75.7
2019-02-07T08:52:58.687Z,75.13
2019-02-07T08:53:59.006Z,75.13
2019-02-07T08:54:58.717Z,75.23
2019-02-07T08:55:58.731Z,75.13
2019-02-07T08:56:59.005Z,75.28
2019-02-07T08:57:58.767Z,75.23
2019-02-07T08:58:58.785Z,75.23
2019-02-07T08:59:58.797Z,75.13
2019-02-07T09:00:59.077Z,75.04
2019-02-07T09:01:59.347Z,75.7
2019-02-07T09:02:59.160Z,75.23
2019-02-07T09:03:58.864Z,75.32
2019-02-07T09:04:59.136Z,75.13
2019-02-07T09:05:58.901Z,75.51
2019-02-07T09:06:59.170Z,75.13
2019-02-07T09:07:58.931Z,75.04
2019-02-07T09:08:58.942Z,75.23
2019-02-07T09:09:59.497Z,75.04
2019-02-07T09:10:58.982Z,75.04
2019-02-07T09:11:59.253Z,75.04
2019-02-07T09:12:59.023Z,75.04
2019-02-07T09:13:59.040Z,75.04
2019-02-07T09:14:59.049Z,75.04
2019-02-07T09:15:59.069Z,75.23
2019-02-07T09:16:59.087Z,75.51
2019-02-07T09:18:09.549Z,75.6
2019-02-07T09:18:59.382Z,75.51
2019-02-07T09:19:59.392Z,75.6
2019-02-07T09:20:59.148Z,75.51
2019-02-07T09:21:59.431Z,75.51
2019-02-07T09:22:59.182Z,75.32
2019-02-07T09:23:59.200Z,75.51
2019-02-07T09:24:59.212Z,75.32
2019-02-07T09:25:59.545Z,75.42
2019-02-07T09:26:59.506Z,75.6
2019-02-07T09:27:59.266Z,75.6
2019-02-07T09:28:59.287Z,75.51
2019-02-07T09:29:59.301Z,75.32
2019-02-07T09:31:00.760Z,75.51
2019-02-07T09:31:59.341Z,75.51
2019-02-07T09:32:59.609Z,75.51
2019-02-07T09:33:59.369Z,75.7
2019-02-07T09:34:59.641Z,75.6
2019-02-07T09:36:09.977Z,75.6
2019-02-07T09:36:59.674Z,75.51
2019-02-07T09:37:59.432Z,75.42
2019-02-07T09:38:59.714Z,75.7
2019-02-07T09:39:59.470Z,75.23
2019-02-07T09:40:59.941Z,75.23
2019-02-07T09:41:59.500Z,75.04
2019-02-07T09:42:59.778Z,75.13
2019-02-07T09:43:59.538Z,75.23
2019-02-07T09:44:59.807Z,75.23
2019-02-07T09:45:59.565Z,75.32
2019-02-07T09:46:59.592Z,75.23
2019-02-07T09:47:59.600Z,75.23
2019-02-07T09:49:00.237Z,75.23
2019-02-07T09:49:59.907Z,75.6
2019-02-07T09:50:59.741Z,75.6
2019-02-07T09:51:59.677Z,75.51
2019-02-07T09:52:59.686Z,75.51
2019-02-07T09:53:59.702Z,75.42
2019-02-07T09:54:59.719Z,75.42
2019-02-07T09:55:59.996Z,75.42
2019-02-07T09:57:00.065Z,75.42
2019-02-07T09:58:00.026Z,75.79
2019-02-07T09:59:00.045Z,74.94
2019-02-07T10:00:00.145Z,75.51
2019-02-07T10:00:59.823Z,74.94
2019-02-07T10:01:59.843Z,75.51
2019-02-07T10:02:59.955Z,75.6
2019-02-07T10:03:59.871Z,75.42
2019-02-07T10:04:59.889Z,75.79
2019-02-07T10:05:59.904Z,75.32
2019-02-07T10:06:59.923Z,75.42
2019-02-07T10:08:00.200Z,75.6
2019-02-07T10:08:59.964Z,75.51
2019-02-07T10:09:59.968Z,75.51
2019-02-07T10:10:59.992Z,74.85
2019-02-07T10:12:00.467Z,74.94
2019-02-07T10:13:00.021Z,74.94
2019-02-07T10:14:00.038Z,74.85
2019-02-07T10:15:00.322Z,75.04
2019-02-07T10:16:00.077Z,75.04
2019-02-07T10:17:00.447Z,74.56
2019-02-07T10:18:00.126Z,74.56
2019-02-07T10:19:00.387Z,74.94
2019-02-07T10:20:00.423Z,75.13
2019-02-07T10:21:00.155Z,75.17
2019-02-07T10:22:00.434Z,74.88
2019-02-07T10:23:00.193Z,74.88
2019-02-07T10:24:00.470Z,74.6
2019-02-07T10:25:00.487Z,74.69
2019-02-07T10:26:00.243Z,74.41
2019-02-07T10:27:00.519Z,74.6
2019-02-07T10:28:00.572Z,74.6
2019-02-07T10:29:00.294Z,74.69
2019-02-07T10:30:00.429Z,74.12
2019-02-07T10:31:00.585Z,74.22
2019-02-07T10:32:00.347Z,74.31
2019-02-07T10:33:00.617Z,74.12
2019-02-07T10:34:00.637Z,74.22
2019-02-07T10:35:00.393Z,74.22
2019-02-07T10:36:00.669Z,74.03
2019-02-07T10:37:00.431Z,74.31
2019-02-07T10:38:00.448Z,74.03
2019-02-07T10:40:00.481Z,74.22
2019-02-07T10:41:00.504Z,73.93
2019-02-07T10:42:00.777Z,74.12
2019-02-07T10:43:00.713Z,74.12
2019-02-07T10:44:00.547Z,74.22
2019-02-07T10:45:00.825Z,74.41
2019-02-07T10:46:00.577Z,74.22
2019-02-07T10:47:00.594Z,73.55
2019-02-07T10:48:00.941Z,74.31
2019-02-07T10:49:00.630Z,74.22
2019-02-07T10:50:01.801Z,74.31
2019-02-07T10:51:01.243Z,74.41
2019-02-07T10:52:00.940Z,74.35
2019-02-07T10:53:00.699Z,74.26
2019-02-07T10:54:00.981Z,73.88
2019-02-07T10:55:00.735Z,74.07
2019-02-07T10:56:00.749Z,74.07
2019-02-07T10:57:00.775Z,74.16
2019-02-07T10:58:00.783Z,73.59
2019-02-07T10:59:01.002Z,73.59
2019-02-07T11:00:00.823Z,73.49
2019-02-07T11:01:01.095Z,73.97
2019-02-07T11:02:01.109Z,73.59
2019-02-07T11:03:01.125Z,73.69
2019-02-07T11:04:01.153Z,73.11
2019-02-07T11:05:00.906Z,73.21
2019-02-07T11:06:00.920Z,73.59
2019-02-07T11:07:01.195Z,73.21
2019-02-07T11:08:00.958Z,73.02
2019-02-07T11:09:01.229Z,73.02
2019-02-07T11:10:01.246Z,72.74
2019-02-07T11:11:02.824Z,72.64
2019-02-07T11:12:01.280Z,72.45
2019-02-07T11:13:01.042Z,72.45
2019-02-07T11:14:01.318Z,72.55
2019-02-07T11:15:01.079Z,72.45
2019-02-07T11:16:01.096Z,72.55
2019-02-07T11:17:03.661Z,72.83
2019-02-07T11:18:01.131Z,72.26
2019-02-07T11:19:01.143Z,72.16
2019-02-07T11:20:01.426Z,72.11
2019-02-07T11:21:01.212Z,72.2
2019-02-07T11:22:01.194Z,72.11
2019-02-07T11:23:01.213Z,72.01
2019-02-07T11:24:01.232Z,71.82
2019-02-07T11:25:01.247Z,72.01
2019-02-07T11:26:01.275Z,71.82
2019-02-07T11:27:01.280Z,72.01
2019-02-07T11:28:12.535Z,71.82
2019-02-07T11:29:01.315Z,71.91
2019-02-07T11:30:01.590Z,71.91
2019-02-07T11:31:01.608Z,72.2
2019-02-07T11:32:01.370Z,72.01
2019-02-07T11:33:01.386Z,71.91
2019-02-07T11:34:01.402Z,72.2
2019-02-07T11:35:01.432Z,71.91
2019-02-07T11:36:01.441Z,72.11
2019-02-07T11:37:01.714Z,72.2
2019-02-07T11:38:01.957Z,72.39
2019-02-07T11:39:01.489Z,72.2
2019-02-07T11:40:01.766Z,71.72
2019-02-07T11:41:01.787Z,71.91
2019-02-07T11:42:01.806Z,71.53
2019-02-07T11:43:01.558Z,71.82
2019-02-07T11:44:01.628Z,71.44
2019-02-07T11:45:01.853Z,71.44
2019-02-07T11:46:01.976Z,71.82
2019-02-07T11:47:09.177Z,71.91
2019-02-07T11:48:01.655Z,71.72
2019-02-07T11:49:09.084Z,71.53
2019-02-07T11:50:01.944Z,71.44
2019-02-07T11:51:01.705Z,71.53
2019-02-07T11:52:01.716Z,71.53
2019-02-07T11:53:01.735Z,71.53
2019-02-07T11:54:02.011Z,71.34
2019-02-07T11:55:01.792Z,71.53
2019-02-07T11:56:01.815Z,71.44
2019-02-07T11:57:01.815Z,71.44
2019-02-07T11:58:02.084Z,71.25
2019-02-07T11:59:01.842Z,71.34
2019-02-07T12:00:01.864Z,71.44
2019-02-07T12:01:02.138Z,71.25
2019-02-07T12:02:11.305Z,71.44
2019-02-07T12:03:01.911Z,71.47
2019-02-07T12:04:02.251Z,71.47
2019-02-07T12:05:01.951Z,71.57
2019-02-07T12:06:02.227Z,71.47
2019-02-07T12:07:01.991Z,71.76
2019-02-07T12:08:02.001Z,70.81
2019-02-07T12:09:02.277Z,70.9
2019-02-07T12:10:02.595Z,70.72
2019-02-07T12:11:02.311Z,71.09
2019-02-07T12:12:02.064Z,71.09
2019-02-07T12:13:02.092Z,70.81
2019-02-07T12:14:02.362Z,70.9
2019-02-07T12:15:02.129Z,70.9
2019-02-07T12:16:02.401Z,71.06
2019-02-07T12:17:02.161Z,70.62
2019-02-07T12:18:02.436Z,71.34
2019-02-07T12:19:02.206Z,71.38
2019-02-07T12:20:02.527Z,71.28
2019-02-07T12:21:02.234Z,71.38
2019-02-07T12:22:02.253Z,71.38
2019-02-07T12:23:02.263Z,71.47
2019-02-07T12:24:02.282Z,71.57
2019-02-07T12:25:02.623Z,71.28
2019-02-07T12:26:02.318Z,71.38
2019-02-07T12:27:02.347Z,71.19
2019-02-07T12:28:02.355Z,71.09
2019-02-07T12:29:02.633Z,71
2019-02-07T12:30:02.389Z,71
2019-02-07T12:31:02.410Z,70.81
2019-02-07T12:32:02.681Z,71.19
2019-02-07T12:33:03.036Z,71.19
2019-02-07T12:34:02.486Z,71.09
2019-02-07T12:35:02.479Z,71.09
2019-02-07T12:36:02.753Z,71.47
2019-02-07T12:37:02.513Z,71.47
2019-02-07T12:38:02.533Z,71.38
2019-02-07T12:39:05.486Z,71.57
2019-02-07T12:40:02.639Z,71.47
2019-02-07T12:41:03.259Z,71.47
2019-02-07T12:42:02.683Z,71.47
2019-02-07T12:43:02.877Z,71.38
2019-02-07T12:44:02.644Z,71.09
2019-02-07T12:45:02.771Z,70.72
2019-02-07T12:46:03.036Z,71.19
2019-02-07T12:47:02.691Z,70.9
2019-02-07T12:48:02.711Z,71.19
2019-02-07T12:49:02.786Z,71.38
2019-02-07T12:50:02.804Z,70.81
2019-02-07T12:51:02.760Z,70.72
2019-02-07T12:52:02.778Z,71.19
2019-02-07T12:53:03.058Z,70.72
2019-02-07T12:54:02.809Z,70.9
2019-02-07T12:55:03.099Z,71.09
2019-02-07T12:56:02.856Z,71.28